首页
METAR-TAF:

METAR-TAF

机场 :

明斯克国际机场

明斯克, 白俄罗斯

纬度: 53-56N, 经度: 027-38E, 海拔: 234米

当前天气观测

该预报发布于16分钟前的12:00 UTC
风速4节,风向西南,在南转西南西之间变化
温度 1°C
湿度 93%
气压 1012 hPa
能見度: 5000
散云层高于600英尺
多云层高于1200英尺, 积雨云.
小阵雪

METAR: UMMS 271200Z 23002MPS 200V270 5000 -SHSN SCT006 BKN012CB 01/M00 Q1012 R31R/290048 R31L/////// NOSIG RMK QBB180

时间: 15:16 (12:16 UTC)

预报

该预报发布于1小时和5分钟前的11:11 UTC
预报有效从27日的 12点(UTC)到 28日的 12点(UTC)
风速12节,风向西南
能見度: 8000
多云层高于500英尺
短暂存在
从 27日的 12点(UTC)到 27日的 15点(UTC)
能見度: 3000
阴天层高于300英尺
散云层高于1500英尺, 积雨云.
(小) 冻, 毛毛雨, 小阵雨, 雪, 轻雾
短暂存在
从 27日的 15点(UTC)到 28日的 07点(UTC)
能見度: 0300
阴天层高于200英尺
多云层高于1000英尺, 积雨云.
(小) 冻, 毛毛雨, 小阵雪, 雨, 冻雾

TAF: UMMS 271111Z 2712/2812 22006MPS 8000 BKN005 TX01/2712Z TNM00/2718Z TEMPO 2712/2715 3000 -FZDZ -SHRASN BR OVC003 SCT015CB TEMPO 2715/2807 0300 -FZDZ -SHSNRA FZFG OVC002 BKN010CB

超过4000个机场的气象观测和天气预报(METAR&TAF报告)。

可查询的气象台以黄色和红色小点在地图上表示。

将鼠标移到小点上方,可查看气象台名称。

然后点击查看天气观测和预报。

如需切换地图:点击带黑十字的绿色按钮放大地图;点击带横线的绿色按钮缩小地图;或者点击绿色箭头查看邻近地区的地图。


METAR-TAF: